Terminal Aerodrome Forecast
Issued by NWS

Current Version | Previous Version | Text Only | Print | Product List | Glossary Off
Versions: 1 2 3 4 5 6 7 8 9 10 11 12 13 14 15 16 17 18 19 20 21 22 23 24 25 26 27

000
FTUS41 KRLX 301400 AAB
TAFCKB
TAF AMD
KCKB 301444Z 3015/3112 33010G20KT 2SM -SN BKN019
     FM301600 30012G20KT P6SM BKN020
     FM310800 25005KT P6SM BKN035=

USA.gov is the U.S. government's official web portal to all federal, state and local government web resources and services.